Brattleboro, VT

7:00 AM EST on January 27, 2015 (GMT -0500)
Orange Municipal | Change Station
CLOSE
Current Station
Airport
Location: Orange,
Elevation: 554 ft
Nearby Weather Stations
Active Advisory: Winter Storm Warning Active Notice: Public Information Statement

Elev 554 ft 42.57 °N, 72.29 °W | Updated 8 minutes ago

Snow
Snow
16 °F
Feels Like 2 °F
N
14
Wind Variable Wind from North
Gusts 25 mph

Today
High -- | Low -- °F
--% Chance of Precip.
Yesterday
High -- | Low -- °F
Precip. -- in
7:10 AM 4:56 PM
First Quarter, 53% visible
Pressure 29.69 in
Visibility 0.8 miles
Clouds
Windchill 2 °F
Dew Point 11 °F
Humidity 81%
Rainfall 0.03 in
Snow Depth Not available.
UV Not available.
Pollen .10 out of 12
Air Quality Not available.
Flu Activity Not available.
METAR KORE 271152Z AUTO 36012G22KT 3/4SM -SN VV014 M09/M12 A2966 RMK AO2 SLP053 P0000 60002 70003 T10891117 11089 21100 58014

More Conditions Fewer Conditions

Pressure 29.69 in
Visibility 0.8 miles
Clouds
Windchill 2 °F
Dew Point 11 °F
Humidity 81%
Rainfall 0.03 in
Snow Depth Not available.
UV Not available.
Pollen .10 out of 12
Air Quality Not available.
Flu Activity Not available.
METAR KORE 271152Z AUTO 36012G22KT 3/4SM -SN VV014 M09/M12 A2966 RMK AO2 SLP053 P0000 60002 70003 T10891117 11089 21100 58014

More Conditions Fewer Conditions

10-Day Weather Forecast

Almanac

Astronomy

Jan. 27, 2015 Rise Set
Actual Time
Civil Twilight
Nautical Twilight
Astronomical Twilight
Moon
Length of Visible Light
Length of Day
Tomorrow will be .
, % of the Moon is Illuminated

Today's Extremes

State Highs State Lows

Community

WunderPhotos

Upload Photos

1,790,566 photos uploaded!

WunderBlogs® & News

Nearby

Air Quality

  Air Quality AQ Index Pollutant
Not available.

Snow Depth

Station Depth Elevation

Earthquake Activity

City Distance Mag. Time & Date
Minimum magnitude displayed is 2.5.

Coastal Water Temperatures

Place Temperature

Nearby Weather Stations